Time;durP1;ratioP1;P1;durP2;ratioP2;P2;SDS_P1;SDS_P2;PMS_P1;PMS_P2;Temp;Humidity;BMP_temperature;BMP_pressure;BME280_temperature;BME280_humidity;BME280_pressure;Samples;Min_cycle;Max_cycle;Signal;HPM_P1;HPM_P2
2023/10/21 00:00:05;;;;;;;18.20;9.60;;;;;;;16.19;80.87;98923.84;106078;1254;61439;-75
2023/10/21 00:02:38;;;;;;;16.50;9.50;;;;;;;16.18;80.72;98922.31;105908;1254;63727;-75
2023/10/21 00:05:06;;;;;;;20.30;9.70;;;;;;;16.18;80.77;98924.94;105788;1254;61279;-77
2023/10/21 00:07:33;;;;;;;17.30;9.40;;;;;;;16.17;80.83;98923.62;105849;1253;61353;-76
2023/10/21 00:10:02;;;;;;;16.70;9.40;;;;;;;16.16;80.62;98925.13;105878;1253;65761;-75
2023/10/21 00:12:30;;;;;;;13.70;9.20;;;;;;;16.16;80.69;98921.40;105651;1253;61263;-76
2023/10/21 00:14:58;;;;;;;18.70;9.50;;;;;;;16.16;80.61;98920.37;105711;1254;62991;-76
2023/10/21 00:17:28;;;;;;;20.60;9.80;;;;;;;16.15;80.54;98921.72;106048;1253;61269;-75
2023/10/21 00:19:55;;;;;;;18.90;9.30;;;;;;;16.15;80.52;98923.89;105875;1254;61253;-77
2023/10/21 00:22:23;;;;;;;19.40;9.60;;;;;;;16.15;80.27;98927.59;105640;1258;65764;-76
2023/10/21 00:24:51;;;;;;;23.00;10.20;;;;;;;16.15;80.35;98928.69;105756;1254;61335;-75
2023/10/21 00:27:19;;;;;;;21.10;9.90;;;;;;;16.14;80.31;98918.98;105907;1256;62594;-76
2023/10/21 00:29:46;;;;;;;22.50;10.00;;;;;;;16.13;80.13;98918.23;105998;1259;61298;-76
2023/10/21 00:32:14;;;;;;;15.30;9.60;;;;;;;16.13;80.14;98918.27;105830;1254;61326;-75
2023/10/21 00:34:42;;;;;;;16.60;9.80;;;;;;;16.12;80.01;98919.58;105766;1254;65918;-75
2023/10/21 00:37:09;;;;;;;19.00;9.50;;;;;;;16.13;80.07;98918.84;105797;1254;61205;-76
2023/10/21 00:39:37;;;;;;;16.70;9.80;;;;;;;16.12;80.06;98916.17;105809;1253;62687;-77
2023/10/21 00:42:05;;;;;;;19.20;9.20;;;;;;;16.13;80.06;98917.37;105856;1256;61314;-75
2023/10/21 00:44:32;;;;;;;20.40;9.80;;;;;;;16.12;79.97;98919.21;105900;1253;61256;-75
2023/10/21 00:47:00;;;;;;;18.60;9.60;;;;;;;16.12;79.86;98919.41;106039;1251;64452;-76
2023/10/21 00:49:28;;;;;;;21.70;9.50;;;;;;;16.12;79.84;98918.59;105899;1251;61295;-76
2023/10/21 00:51:56;;;;;;;16.40;9.20;;;;;;;16.12;79.82;98915.95;105878;1256;64597;-77
2023/10/21 00:54:27;;;;;;;19.70;9.30;;;;;;;16.11;79.85;98917.82;107248;1254;61276;-75
2023/10/21 00:56:54;;;;;;;21.30;10.00;;;;;;;16.11;79.77;98922.91;105887;1251;61243;-75
2023/10/21 00:59:25;;;;;;;16.80;9.30;;;;;;;16.11;79.76;98922.58;105886;1251;65744;-75
2023/10/21 01:01:53;;;;;;;14.40;8.70;;;;;;;16.10;79.62;98925.48;105823;1251;61340;-75
2023/10/21 01:04:21;;;;;;;16.90;9.10;;;;;;;16.11;79.66;98927.40;105953;1258;63791;-75
2023/10/21 01:06:49;;;;;;;18.20;9.50;;;;;;;16.10;79.63;98927.98;105787;1254;61519;-76
2023/10/21 01:09:18;;;;;;;19.80;8.90;;;;;;;16.10;79.61;98926.63;106111;1258;61247;-76
2023/10/21 01:11:46;;;;;;;16.90;8.90;;;;;;;16.09;79.61;98925.43;105851;1254;65824;-76
2023/10/21 01:14:13;;;;;;;18.50;9.00;;;;;;;16.09;79.66;98923.55;105832;1259;61282;-75
2023/10/21 01:16:41;;;;;;;21.10;9.10;;;;;;;16.09;79.54;98924.57;105677;1259;62501;-76
2023/10/21 01:19:08;;;;;;;19.00;9.30;;;;;;;16.09;79.59;98928.38;105738;1257;61315;-76
2023/10/21 01:21:36;;;;;;;16.70;9.30;;;;;;;16.08;79.56;98931.65;105870;1254;61275;-75
2023/10/21 01:24:03;;;;;;;16.40;8.90;;;;;;;16.08;79.65;98928.66;105831;1254;65772;-75
2023/10/21 01:26:31;;;;;;;17.60;9.20;;;;;;;16.08;79.56;98924.56;105700;1254;61264;-75
2023/10/21 01:28:58;;;;;;;22.90;9.90;;;;;;;16.07;79.44;98925.59;105694;1257;62431;-75
2023/10/21 01:31:26;;;;;;;19.90;9.50;;;;;;;16.06;79.52;98922.55;105673;1254;61370;-75
2023/10/21 01:33:53;;;;;;;21.20;9.20;;;;;;;16.05;79.62;98920.28;105850;1258;61756;-75
2023/10/21 01:36:21;;;;;;;17.40;9.20;;;;;;;16.04;79.56;98920.29;105754;1253;76742;-76
2023/10/21 01:38:48;;;;;;;17.50;9.60;;;;;;;16.02;79.69;98923.42;105859;1259;61452;-76
2023/10/21 01:41:16;;;;;;;15.20;9.60;;;;;;;16.02;79.66;98921.95;105779;1257;62534;-76
2023/10/21 01:43:43;;;;;;;18.70;9.00;;;;;;;16.01;79.60;98920.45;105845;1258;61352;-77
2023/10/21 01:46:11;;;;;;;19.80;9.00;;;;;;;16.00;79.46;98920.40;105781;1258;61269;-77
2023/10/21 01:48:38;;;;;;;17.80;9.40;;;;;;;16.00;79.59;98928.75;105826;1252;64451;-75
2023/10/21 01:51:06;;;;;;;18.00;9.20;;;;;;;16.00;79.64;98933.55;105983;1254;61256;-77
2023/10/21 01:53:33;;;;;;;20.90;9.10;;;;;;;16.00;79.52;98948.30;105878;1256;62456;-75
2023/10/21 01:56:04;;;;;;;14.60;8.80;;;;;;;16.00;79.63;98956.25;105607;1257;61371;-75
2023/10/21 01:58:32;;;;;;;19.40;9.30;;;;;;;16.01;79.63;98953.83;105800;1254;61353;-76
2023/10/21 02:01:07;;;;;;;23.00;10.40;;;;;;;16.00;79.54;98950.52;105812;1255;64524;-76
2023/10/21 02:03:34;;;;;;;18.60;9.20;;;;;;;15.99;79.67;98956.33;105734;1254;61250;-77
2023/10/21 02:06:06;;;;;;;16.90;9.70;;;;;;;15.98;79.60;98960.95;105641;1259;62511;-75
2023/10/21 02:08:34;;;;;;;18.90;9.80;;;;;;;15.96;79.57;98959.05;105667;1256;61462;-76
2023/10/21 02:11:02;;;;;;;18.00;10.10;;;;;;;15.95;79.54;98962.70;105809;1257;61202;-75
2023/10/21 02:13:29;;;;;;;17.40;9.70;;;;;;;15.94;79.58;98966.95;105560;1253;64452;-76
2023/10/21 02:15:57;;;;;;;17.00;9.70;;;;;;;15.93;79.67;98966.20;105925;1258;61355;-76
2023/10/21 02:18:25;;;;;;;15.50;9.70;;;;;;;15.93;79.62;98967.48;105869;1254;64727;-76
2023/10/21 02:20:53;;;;;;;19.00;9.80;;;;;;;15.92;79.63;98971.23;105538;1262;61352;-76
2023/10/21 02:23:20;;;;;;;17.00;9.70;;;;;;;15.92;79.63;98968.46;105781;1258;61249;-75
2023/10/21 02:25:59;;;;;;;16.00;9.70;;;;;;;15.91;79.55;98967.64;105922;1252;65727;-75
2023/10/21 02:28:29;;;;;;;16.60;8.80;;;;;;;15.90;79.56;98972.41;105919;1254;67700;-79
2023/10/21 02:30:57;;;;;;;19.50;9.40;;;;;;;15.88;79.50;98971.95;105959;1254;63832;-75
2023/10/21 02:33:25;;;;;;;16.70;9.80;;;;;;;15.87;79.51;98979.08;106077;1254;59390;-75
2023/10/21 02:35:53;;;;;;;19.70;9.80;;;;;;;15.85;79.61;98985.65;107665;1253;60428;-75
2023/10/21 02:38:24;;;;;;;23.10;10.00;;;;;;;15.84;79.53;98976.31;105898;1261;64458;-75
2023/10/21 02:40:51;;;;;;;13.20;9.20;;;;;;;15.83;79.56;98980.76;105842;1254;61387;-75
2023/10/21 02:43:19;;;;;;;16.10;9.30;;;;;;;15.81;79.59;98993.39;106032;1254;63813;-75
2023/10/21 02:45:48;;;;;;;18.10;9.70;;;;;;;15.81;79.50;98996.08;105865;1259;61365;-76
2023/10/21 02:48:16;;;;;;;17.30;9.10;;;;;;;15.79;79.36;98996.11;106039;1256;61192;-75
2023/10/21 02:50:43;;;;;;;14.40;9.50;;;;;;;15.77;79.44;98999.65;105868;1256;65918;-76
2023/10/21 02:53:11;;;;;;;16.90;9.90;;;;;;;15.76;79.53;99000.06;105933;1252;61355;-75
2023/10/21 02:55:38;;;;;;;14.00;9.30;;;;;;;15.75;79.40;98996.33;105993;1254;62512;-76
2023/10/21 02:58:06;;;;;;;13.90;10.00;;;;;;;15.72;79.44;98993.08;105991;1256;61244;-76
2023/10/21 03:00:34;;;;;;;14.40;9.60;;;;;;;15.70;79.49;98995.40;105847;1257;61244;-75
2023/10/21 03:03:04;;;;;;;17.40;9.10;;;;;;;15.69;79.60;98992.85;105998;1254;64543;-75
2023/10/21 03:05:32;;;;;;;13.90;9.20;;;;;;;15.68;79.57;98993.25;105948;1254;61440;-76
2023/10/21 03:08:00;;;;;;;15.80;9.30;;;;;;;15.64;79.57;98993.38;105957;1254;63776;-75
2023/10/21 03:10:29;;;;;;;16.00;9.90;;;;;;;15.61;79.43;98993.20;106007;1254;61474;-76
2023/10/21 03:12:56;;;;;;;18.70;10.00;;;;;;;15.57;79.36;99002.39;105576;1259;61189;-76
2023/10/21 03:15:24;;;;;;;19.10;9.90;;;;;;;15.53;79.42;98995.95;105798;1254;65790;-75
2023/10/21 03:17:52;;;;;;;15.90;9.90;;;;;;;15.50;79.50;98993.30;105968;1258;61245;-75
2023/10/21 03:20:20;;;;;;;16.50;10.10;;;;;;;15.47;79.57;98992.41;105893;1255;62715;-76
2023/10/21 03:22:47;;;;;;;19.50;9.90;;;;;;;15.45;79.50;98990.55;105892;1254;61203;-76
2023/10/21 03:25:15;;;;;;;15.50;9.50;;;;;;;15.42;79.60;98989.15;105973;1254;61294;-75
2023/10/21 03:27:42;;;;;;;21.40;9.90;;;;;;;15.38;79.66;99004.46;105925;1254;73329;-76
2023/10/21 03:30:10;;;;;;;17.30;10.40;;;;;;;15.36;79.78;98993.89;105790;1259;61236;-76
2023/10/21 03:32:38;;;;;;;15.30;10.00;;;;;;;15.34;79.90;98991.84;105891;1254;63738;-75
2023/10/21 03:35:06;;;;;;;16.20;10.70;;;;;;;15.33;79.98;98998.20;105796;1254;63047;-76
2023/10/21 03:37:34;;;;;;;17.10;10.20;;;;;;;15.32;80.07;99004.41;105838;1256;61128;-76
2023/10/21 03:40:06;;;;;;;19.00;10.20;;;;;;;15.31;80.20;99001.98;105791;1254;65687;-75
2023/10/21 03:42:33;;;;;;;15.40;9.90;;;;;;;15.30;80.23;98994.12;105754;1257;61161;-75
2023/10/21 03:45:02;;;;;;;18.60;10.90;;;;;;;15.29;80.23;99005.27;105823;1258;62529;-76
2023/10/21 03:47:29;;;;;;;19.10;10.60;;;;;;;15.28;80.25;99016.53;105972;1256;61860;-74
2023/10/21 03:49:57;;;;;;;16.90;10.50;;;;;;;15.27;80.32;99015.98;105856;1251;61284;-75
2023/10/21 03:52:25;;;;;;;17.10;11.00;;;;;;;15.25;80.44;99008.41;106073;1252;64691;-76
2023/10/21 03:54:52;;;;;;;17.00;10.10;;;;;;;15.25;80.42;99008.02;105894;1259;61307;-75
2023/10/21 03:57:21;;;;;;;17.00;10.80;;;;;;;15.26;80.57;99011.34;105770;1257;63761;-76
2023/10/21 03:59:49;;;;;;;17.40;10.90;;;;;;;15.27;80.66;99014.52;105963;1254;61266;-76
2023/10/21 04:02:17;;;;;;;16.50;10.70;;;;;;;15.28;80.70;99025.73;105983;1255;61436;-75
2023/10/21 04:04:45;;;;;;;15.10;10.40;;;;;;;15.28;80.75;99029.30;105842;1259;65850;-76
2023/10/21 04:07:13;;;;;;;16.00;10.30;;;;;;;15.28;80.65;99025.08;105731;1259;61243;-76
2023/10/21 04:09:41;;;;;;;17.50;10.70;;;;;;;15.28;80.60;99030.33;105864;1258;63819;-76
2023/10/21 04:12:09;;;;;;;17.20;10.50;;;;;;;15.28;80.63;99030.20;105738;1259;61343;-75
2023/10/21 04:14:37;;;;;;;18.80;10.50;;;;;;;15.28;80.53;99028.03;105863;1259;61191;-75
2023/10/21 04:17:05;;;;;;;15.80;10.40;;;;;;;15.29;80.53;99027.80;105995;1253;65717;-76
2023/10/21 04:19:33;;;;;;;16.20;10.80;;;;;;;15.29;80.46;99025.86;105978;1259;61253;-76
2023/10/21 04:22:00;;;;;;;16.30;10.30;;;;;;;15.29;80.52;99030.66;105838;1254;63691;-75
2023/10/21 04:24:28;;;;;;;15.30;10.40;;;;;;;15.28;80.45;99034.95;105879;1257;61314;-75
2023/10/21 04:26:55;;;;;;;16.30;10.30;;;;;;;15.29;80.52;99042.66;105978;1259;61160;-76
2023/10/21 04:29:23;;;;;;;17.60;10.80;;;;;;;15.29;80.52;99048.14;105740;1259;65741;-75
2023/10/21 04:31:52;;;;;;;16.90;10.50;;;;;;;15.29;80.56;99051.36;105977;1254;61249;-75
2023/10/21 04:34:19;;;;;;;17.10;10.50;;;;;;;15.29;80.43;99054.23;105875;1254;62454;-75
2023/10/21 04:36:48;;;;;;;15.00;9.80;;;;;;;15.28;80.50;99060.77;105674;1259;61355;-76
2023/10/21 04:39:16;;;;;;;15.80;10.50;;;;;;;15.27;80.51;99065.23;105758;1254;61354;-75
2023/10/21 04:41:44;;;;;;;18.10;10.80;;;;;;;15.28;80.59;99064.66;105806;1259;65764;-75
2023/10/21 04:44:13;;;;;;;16.40;10.00;;;;;;;15.28;80.54;99065.32;106066;1258;61224;-77
2023/10/21 04:46:41;;;;;;;15.00;10.50;;;;;;;15.28;80.48;99068.50;105807;1257;63880;-75
2023/10/21 04:49:10;;;;;;;16.80;10.50;;;;;;;15.29;80.65;99071.02;105730;1259;61282;-76
2023/10/21 04:51:37;;;;;;;18.40;11.30;;;;;;;15.30;80.53;99078.68;105857;1254;61368;-75
2023/10/21 04:54:05;;;;;;;18.80;10.40;;;;;;;15.31;80.50;99084.13;105721;1260;65711;-76
2023/10/21 04:56:33;;;;;;;17.40;10.70;;;;;;;15.31;80.64;99089.41;105760;1262;61311;-76
2023/10/21 04:59:01;;;;;;;19.80;10.20;;;;;;;15.31;80.53;99101.98;105706;1257;63744;-76
2023/10/21 05:01:32;;;;;;;17.80;10.90;;;;;;;15.30;80.45;99098.56;105848;1254;61255;-76
2023/10/21 05:04:00;;;;;;;14.60;9.90;;;;;;;15.29;80.62;99097.77;105805;1254;61772;-76
2023/10/21 05:06:28;;;;;;;17.70;10.40;;;;;;;15.30;80.53;99097.05;105674;1254;65704;-76
2023/10/21 05:08:56;;;;;;;20.00;9.90;;;;;;;15.31;80.61;99101.35;105719;1253;61217;-75
2023/10/21 05:11:23;;;;;;;17.90;10.80;;;;;;;15.32;80.73;99100.51;105846;1254;63755;-76
2023/10/21 05:13:51;;;;;;;22.00;10.40;;;;;;;15.34;80.79;99105.33;105843;1254;61359;-75
2023/10/21 05:16:18;;;;;;;16.70;10.10;;;;;;;15.36;80.73;99110.45;105674;1254;61270;-76
2023/10/21 05:18:46;;;;;;;14.30;10.20;;;;;;;15.38;80.84;99114.29;105728;1254;65751;-76
2023/10/21 05:21:14;;;;;;;16.20;10.40;;;;;;;15.41;80.94;99116.03;105806;1254;61378;-77
2023/10/21 05:23:41;;;;;;;13.20;10.30;;;;;;;15.45;80.93;99120.40;105905;1259;64762;-75
2023/10/21 05:26:09;;;;;;;13.00;9.60;;;;;;;15.49;81.00;99120.98;105698;1259;61241;-75
2023/10/21 05:28:36;;;;;;;17.20;10.50;;;;;;;15.53;80.96;99124.23;105958;1253;61337;-75
2023/10/21 05:31:04;;;;;;;18.10;9.90;;;;;;;15.58;80.94;99130.03;105895;1259;65734;-75
2023/10/21 05:33:32;;;;;;;14.20;9.80;;;;;;;15.61;81.04;99130.84;106000;1255;61333;-76
2023/10/21 05:35:59;;;;;;;16.40;10.00;;;;;;;15.66;81.05;99135.30;106176;1254;62584;-76
2023/10/21 05:38:27;;;;;;;14.90;9.30;;;;;;;15.70;80.95;99142.91;106082;1260;61349;-75
2023/10/21 05:41:21;;;;;;;17.10;9.90;;;;;;;15.73;80.90;99142.89;106009;1254;61586;-75
2023/10/21 05:43:48;;;;;;;18.10;9.40;;;;;;;15.77;80.87;99138.91;106042;1255;65824;-76
2023/10/21 05:46:16;;;;;;;15.70;9.60;;;;;;;15.81;80.79;99139.68;105901;1257;61338;-76
2023/10/21 05:48:43;;;;;;;16.40;10.50;;;;;;;15.85;80.81;99139.92;105975;1254;62547;-76
2023/10/21 05:51:11;;;;;;;15.90;9.50;;;;;;;15.90;80.73;99142.17;105878;1254;61721;-77
2023/10/21 05:53:38;;;;;;;23.50;9.00;;;;;;;15.95;80.87;99145.94;105974;1254;61378;-76
2023/10/21 05:56:06;;;;;;;14.30;9.40;;;;;;;16.03;80.90;99147.31;105868;1259;68007;-76
2023/10/21 05:58:33;;;;;;;18.50;9.70;;;;;;;16.12;80.70;99153.31;106027;1254;61391;-75
2023/10/21 06:01:08;;;;;;;15.20;8.90;;;;;;;16.22;80.80;99155.11;106186;1254;66046;-76
2023/10/21 06:03:37;;;;;;;14.20;9.20;;;;;;;16.32;80.50;99158.27;106029;1260;61253;-76
2023/10/21 06:06:05;;;;;;;14.10;9.00;;;;;;;16.42;80.28;99155.41;106070;1253;61156;-77
2023/10/21 06:08:33;;;;;;;17.40;9.20;;;;;;;16.52;80.04;99157.44;106169;1259;65828;-75
2023/10/21 06:11:01;;;;;;;15.10;8.90;;;;;;;16.60;79.72;99158.51;105993;1255;61368;-75
2023/10/21 06:13:29;;;;;;;16.40;8.80;;;;;;;16.69;79.15;99165.96;106526;1257;63666;-75
2023/10/21 06:15:57;;;;;;;15.90;8.70;;;;;;;16.77;78.93;99166.08;106226;1255;61260;-75
2023/10/21 06:18:25;;;;;;;15.30;8.50;;;;;;;16.85;78.80;99164.84;106657;1257;61330;-76
2023/10/21 06:20:53;;;;;;;15.90;8.50;;;;;;;16.94;78.51;99166.64;108213;1253;64446;-76
2023/10/21 06:23:23;;;;;;;17.90;8.80;;;;;;;17.02;78.32;99165.36;107042;1251;60702;-79
2023/10/21 06:25:51;;;;;;;16.20;8.90;;;;;;;17.11;78.04;99161.77;106268;1256;62476;-76
2023/10/21 06:28:18;;;;;;;18.60;9.40;;;;;;;17.20;77.79;99158.20;105834;1260;61839;-76
2023/10/21 06:30:46;;;;;;;17.60;9.80;;;;;;;17.27;77.38;99166.73;105718;1255;61380;-78
2023/10/21 06:33:13;;;;;;;16.30;8.90;;;;;;;17.32;76.91;99171.45;105845;1254;65716;-77
2023/10/21 06:35:41;;;;;;;20.80;9.40;;;;;;;17.35;76.48;99169.71;106043;1253;61349;-76
2023/10/21 06:38:08;;;;;;;16.00;8.50;;;;;;;17.40;75.99;99172.71;105831;1258;63822;-77
2023/10/21 06:40:36;;;;;;;16.30;8.30;;;;;;;17.44;75.76;99165.17;105997;1258;61237;-76
2023/10/21 06:43:23;;;;;;;15.00;8.10;;;;;;;17.50;75.52;99170.02;105890;1259;61260;-77
2023/10/21 06:45:52;;;;;;;12.10;7.70;;;;;;;17.55;75.36;99173.95;105923;1254;65717;-81
2023/10/21 06:48:21;;;;;;;14.40;8.30;;;;;;;17.61;75.13;99175.92;105954;1260;61296;-77
2023/10/21 06:50:49;;;;;;;16.10;7.70;;;;;;;17.66;74.75;99174.11;106584;1260;62612;-77
2023/10/21 06:53:17;;;;;;;17.20;7.80;;;;;;;17.72;74.57;99174.33;106458;1254;61339;-77
2023/10/21 06:55:44;;;;;;;14.70;7.90;;;;;;;17.77;74.19;99181.89;106289;1257;61345;-78
2023/10/21 06:58:12;;;;;;;17.10;7.70;;;;;;;17.81;73.76;99182.48;105884;1252;64488;-78
2023/10/21 07:00:40;;;;;;;16.50;7.60;;;;;;;17.85;73.50;99185.13;106090;1260;61280;-75
2023/10/21 07:03:08;;;;;;;10.20;7.20;;;;;;;17.90;73.37;99190.17;106091;1260;63692;-75
2023/10/21 07:05:36;;;;;;;16.10;7.80;;;;;;;17.96;73.16;99190.61;106213;1259;61279;-75
2023/10/21 07:08:04;;;;;;;11.40;7.40;;;;;;;18.03;73.15;99190.40;106042;1258;61189;-76
2023/10/21 07:10:32;;;;;;;12.50;7.80;;;;;;;18.09;72.79;99194.79;105932;1260;65761;-79
2023/10/21 07:12:59;;;;;;;12.10;7.20;;;;;;;18.18;72.40;99201.48;105740;1255;61388;-74
2023/10/21 07:15:33;;;;;;;12.60;7.10;;;;;;;18.26;71.90;99204.88;105827;1254;63749;-74
2023/10/21 07:18:01;;;;;;;;;;;;;;;18.33;71.25;99205.08;105874;1259;61390;-78
2023/10/21 07:20:32;;;;;;;15.10;7.40;;;;;;;18.39;70.98;99205.88;105859;1252;61259;-76
2023/10/21 07:22:59;;;;;;;18.50;7.70;;;;;;;18.45;70.76;99212.02;106069;1254;65733;-76
2023/10/21 07:25:30;;;;;;;20.50;7.80;;;;;;;18.53;70.34;99215.55;105968;1260;61352;-78
2023/10/21 07:27:58;;;;;;;12.90;7.60;;;;;;;18.62;69.84;99217.51;105835;1260;62474;-78
2023/10/21 07:30:27;;;;;;;14.30;7.60;;;;;;;18.69;69.60;99215.29;105848;1253;61224;-77
2023/10/21 07:32:55;;;;;;;23.40;8.40;;;;;;;18.79;69.53;99209.80;106062;1257;61161;-78
2023/10/21 07:35:22;;;;;;;10.90;7.50;;;;;;;18.93;69.15;99211.95;106300;1260;65839;-77
2023/10/21 07:37:50;;;;;;;16.60;7.70;;;;;;;19.04;68.86;99213.45;106038;1257;61266;-75
2023/10/21 07:40:17;;;;;;;17.20;8.10;;;;;;;19.14;68.43;99215.93;105800;1260;63691;-76
2023/10/21 07:42:45;;;;;;;20.20;8.00;;;;;;;19.23;68.18;99219.85;106302;1257;61348;-76
2023/10/21 07:45:14;;;;;;;16.30;7.90;;;;;;;19.33;68.18;99223.35;105971;1267;61324;-75
2023/10/21 07:47:42;;;;;;;12.40;7.70;;;;;;;19.42;67.62;99222.60;105827;1254;64413;-76
2023/10/21 07:50:10;;;;;;;16.30;7.80;;;;;;;19.53;67.41;99217.95;105906;1254;61361;-77
2023/10/21 07:52:38;;;;;;;13.40;7.40;;;;;;;19.65;66.93;99221.21;105843;1259;63807;-77
2023/10/21 07:55:05;;;;;;;11.90;7.60;;;;;;;19.76;66.02;99224.00;105809;1259;61329;-74
2023/10/21 07:57:33;;;;;;;13.70;7.30;;;;;;;19.87;65.53;99228.19;105905;1254;61369;-75
2023/10/21 08:00:01;;;;;;;13.40;7.60;;;;;;;19.97;64.82;99232.07;106018;1259;64454;-76
2023/10/21 08:02:30;;;;;;;13.10;7.80;;;;;;;20.09;64.00;99232.12;105884;1257;61210;-75
2023/10/21 08:04:59;;;;;;;20.90;7.20;;;;;;;20.21;63.60;99231.34;105529;1260;63713;-76
2023/10/21 08:07:26;;;;;;;13.30;6.80;;;;;;;20.31;63.40;99231.71;105914;1267;61275;-76
2023/10/21 08:09:54;;;;;;;14.60;6.40;;;;;;;20.40;62.84;99231.77;105844;1254;61133;-75
2023/10/21 08:12:21;;;;;;;16.70;6.60;;;;;;;20.48;62.28;99227.58;105992;1261;65874;-76
2023/10/21 08:14:49;;;;;;;15.70;6.20;;;;;;;20.61;61.84;99236.55;105916;1257;61278;-75
2023/10/21 08:17:20;;;;;;;14.80;6.00;;;;;;;20.74;61.01;99238.05;105870;1254;63700;-74
2023/10/21 08:19:47;;;;;;;12.90;5.90;;;;;;;20.88;60.52;99236.16;105954;1254;61484;-75
2023/10/21 08:22:15;;;;;;;12.70;5.50;;;;;;;21.01;59.86;99231.20;105851;1259;61196;-76
2023/10/21 08:24:43;;;;;;;16.20;5.80;;;;;;;21.11;58.57;99231.87;106264;1263;65772;-75
2023/10/21 08:27:11;;;;;;;10.70;5.50;;;;;;;21.19;57.98;99233.75;106077;1254;61263;-76
2023/10/21 08:29:39;;;;;;;14.80;5.50;;;;;;;21.23;57.29;99232.61;105752;1260;62602;-75
2023/10/21 08:32:07;;;;;;;11.00;5.50;;;;;;;21.27;57.19;99230.08;105938;1260;61349;-75
2023/10/21 08:34:37;;;;;;;20.20;5.70;;;;;;;21.33;56.97;99233.52;105702;1260;61298;-75
2023/10/21 08:37:07;;;;;;;11.30;5.70;;;;;;;21.36;56.61;99233.98;105835;1257;65217;-75
2023/10/21 08:39:34;;;;;;;12.70;5.30;;;;;;;21.43;56.29;99231.69;105966;1254;61266;-76
2023/10/21 08:42:03;;;;;;;20.30;5.40;;;;;;;21.54;56.32;99234.08;105839;1258;63883;-77
2023/10/21 08:44:36;;;;;;;17.10;5.30;;;;;;;21.64;55.67;99232.20;105890;1254;61273;-76
2023/10/21 08:47:04;;;;;;;15.00;5.30;;;;;;;21.77;55.53;99227.97;105712;1253;61376;-75
2023/10/21 08:49:32;;;;;;;14.70;5.30;;;;;;;21.92;54.90;99224.98;105686;1260;68154;-76
2023/10/21 08:52:02;;;;;;;12.70;5.00;;;;;;;22.04;53.92;99226.42;105925;1259;61186;-76
2023/10/21 08:54:31;;;;;;;14.40;5.10;;;;;;;22.17;53.46;99231.60;105723;1259;157106;-76
2023/10/21 08:56:59;;;;;;;16.50;5.20;;;;;;;22.25;52.39;99233.95;105663;1260;61355;-77
2023/10/21 08:59:29;;;;;;;15.80;5.30;;;;;;;22.31;52.11;99239.02;105897;1260;61349;-76
2023/10/21 09:01:57;;;;;;;13.70;5.10;;;;;;;22.36;52.11;99241.88;105549;1254;65762;-76
2023/10/21 09:04:24;;;;;;;12.90;4.60;;;;;;;22.41;52.32;99246.95;106050;1254;61410;-75
2023/10/21 09:06:54;;;;;;;13.60;4.70;;;;;;;22.49;51.72;99247.42;105565;1261;62649;-76
2023/10/21 09:09:23;;;;;;;15.50;5.10;;;;;;;22.54;51.52;99245.09;105806;1260;61291;-75
2023/10/21 09:12:05;;;;;;;13.60;5.00;;;;;;;22.62;51.62;99248.42;105951;1258;61253;-76
2023/10/21 09:14:49;;;;;;;16.20;5.50;;;;;;;22.70;51.01;99252.48;105979;1257;65909;-76
2023/10/21 09:17:17;;;;;;;11.20;4.60;;;;;;;22.78;51.19;99252.17;106036;1256;61199;-76
2023/10/21 09:19:49;;;;;;;14.60;4.70;;;;;;;22.87;51.32;99252.37;105742;1254;63751;-77
2023/10/21 09:22:30;;;;;;;12.40;4.80;;;;;;;22.94;50.58;99250.77;105724;1259;61350;-79
2023/10/21 09:25:08;;;;;;;15.90;4.70;;;;;;;22.99;50.26;99250.85;105607;1254;60379;-77
2023/10/21 09:27:39;;;;;;;13.10;5.30;;;;;;;23.07;50.83;99250.58;106002;1253;65998;-76
2023/10/21 09:30:19;;;;;;;11.60;4.70;;;;;;;23.25;50.85;99256.10;107403;1253;61129;-76
2023/10/21 09:32:50;;;;;;;12.50;4.60;;;;;;;23.49;50.79;99259.97;106095;1259;63766;-77
2023/10/21 09:35:21;;;;;;;19.40;4.90;;;;;;;23.71;50.34;99261.87;105794;1261;61343;-77
2023/10/21 09:37:49;;;;;;;17.10;5.00;;;;;;;23.93;49.22;99259.19;105675;1254;61413;-81
2023/10/21 09:40:18;;;;;;;15.50;4.80;;;;;;;24.09;48.57;99265.48;105689;1259;64618;-82
2023/10/21 09:42:50;;;;;;;15.20;5.30;;;;;;;24.23;48.33;99273.93;105781;1254;61339;-77
2023/10/21 09:45:17;;;;;;;15.10;4.90;;;;;;;24.34;47.73;99276.85;105999;1257;62509;-77
2023/10/21 09:47:45;;;;;;;11.70;4.60;;;;;;;24.37;46.75;99281.77;105899;1260;61167;-77
2023/10/21 09:50:14;;;;;;;11.60;4.30;;;;;;;24.39;46.85;99287.30;106131;1252;61158;-77
2023/10/21 09:52:54;;;;;;;14.40;5.10;;;;;;;24.48;47.48;99286.63;105793;1254;65764;-78
2023/10/21 09:55:24;;;;;;;13.90;5.10;;;;;;;24.61;47.70;99286.68;106470;1257;61356;-79
2023/10/21 09:57:53;;;;;;;14.70;5.10;;;;;;;24.77;47.74;99291.00;106055;1254;63792;-76
2023/10/21 10:00:22;;;;;;;14.00;5.40;;;;;;;24.95;47.76;99289.62;106006;1253;61249;-76
2023/10/21 10:02:49;;;;;;;14.10;5.30;;;;;;;25.12;47.52;99297.36;106203;1254;61393;-76
2023/10/21 10:05:20;;;;;;;17.40;5.70;;;;;;;25.26;47.43;99300.20;107150;1253;65844;-76
2023/10/21 10:07:48;;;;;;;14.30;5.30;;;;;;;25.39;47.11;99303.44;108883;1252;58947;-76
2023/10/21 10:10:17;;;;;;;11.20;5.00;;;;;;;25.45;47.12;99307.60;106499;1257;63184;-77
2023/10/21 10:12:57;;;;;;;18.20;5.20;;;;;;;25.45;46.77;99316.90;106172;1257;61308;-77
2023/10/21 10:15:46;;;;;;;16.10;5.70;;;;;;;25.33;46.32;99318.33;106002;1260;61362;-76
2023/10/21 10:18:19;;;;;;;14.20;5.30;;;;;;;25.14;46.43;99322.52;106160;1257;65705;-76
2023/10/21 10:20:52;;;;;;;12.90;5.20;;;;;;;24.95;46.85;99324.73;106136;1252;61250;-75
2023/10/21 10:23:20;;;;;;;11.90;5.40;;;;;;;24.83;47.31;99328.60;106065;1254;63702;-76
2023/10/21 10:25:54;;;;;;;12.60;5.80;;;;;;;24.70;47.88;99331.95;105877;1259;61359;-75
2023/10/21 10:28:25;;;;;;;14.00;5.50;;;;;;;24.71;48.05;99342.83;106136;1259;59908;-76
2023/10/21 10:30:56;;;;;;;13.80;5.50;;;;;;;24.65;47.85;99348.71;105816;1254;64521;-77
2023/10/21 10:33:28;;;;;;;14.50;5.80;;;;;;;24.59;48.15;99363.95;105938;1257;61305;-77
2023/10/21 10:35:57;;;;;;;14.00;5.50;;;;;;;24.51;48.25;99370.98;105854;1254;63693;-76
2023/10/21 10:38:26;;;;;;;10.50;5.00;;;;;;;24.45;48.43;99371.39;105808;1256;61307;-76
2023/10/21 10:41:07;;;;;;;10.50;5.70;;;;;;;24.41;49.08;99373.08;105831;1258;61215;-77
2023/10/21 10:43:35;;;;;;;14.30;5.80;;;;;;;24.39;49.25;99377.29;105912;1254;65705;-75
2023/10/21 10:46:04;;;;;;;13.90;5.80;;;;;;;24.36;49.26;99379.76;105940;1254;61253;-77
2023/10/21 10:48:34;;;;;;;13.50;5.70;;;;;;;24.38;49.70;99381.70;105844;1259;62538;-78
2023/10/21 10:51:12;;;;;;;19.50;6.30;;;;;;;24.44;49.75;99384.70;105817;1254;61233;-76
2023/10/21 10:53:40;;;;;;;13.00;5.90;;;;;;;24.51;49.83;99386.64;106012;1254;61362;-75
2023/10/21 10:56:09;;;;;;;15.00;6.10;;;;;;;24.61;49.89;99382.31;105703;1257;65774;-76
2023/10/21 10:58:38;;;;;;;13.90;5.70;;;;;;;24.74;50.06;99378.55;105973;1260;61301;-77
2023/10/21 11:01:07;;;;;;;14.30;5.90;;;;;;;24.91;49.73;99384.13;105987;1258;62480;-77
2023/10/21 11:03:36;;;;;;;12.60;5.40;;;;;;;25.09;49.74;99390.66;105978;1254;61272;-76
2023/10/21 11:06:06;;;;;;;12.70;6.10;;;;;;;25.28;48.48;99389.00;105802;1260;61180;-79
2023/10/21 11:08:33;;;;;;;14.70;6.20;;;;;;;25.40;48.17;99391.38;105751;1260;65776;-76
2023/10/21 11:11:03;;;;;;;16.70;5.70;;;;;;;25.54;48.39;99393.31;105803;1254;61257;-78
2023/10/21 11:13:32;;;;;;;11.20;6.00;;;;;;;25.73;48.31;99393.33;106023;1253;63743;-75
2023/10/21 11:16:00;;;;;;;14.10;6.10;;;;;;;25.90;47.94;99390.92;105871;1257;61282;-78
2023/10/21 11:18:30;;;;;;;15.20;6.30;;;;;;;26.02;47.78;99397.45;105796;1254;61243;-78
2023/10/21 11:20:58;;;;;;;15.30;5.90;;;;;;;26.09;47.20;99403.69;105843;1258;65888;-77
2023/10/21 11:23:28;;;;;;;11.80;5.80;;;;;;;26.11;46.85;99411.83;105917;1260;61355;-76